Time;durP1;ratioP1;P1;durP2;ratioP2;P2;SDS_P1;SDS_P2;PMS_P1;PMS_P2;Temp;Humidity;BMP_temperature;BMP_pressure;BME280_temperature;BME280_humidity;BME280_pressure;Samples;Min_cycle;Max_cycle;Signal;HPM_P1;HPM_P2
2023/04/21 00:02:06;;;;;;;12.10;7.97;;;8.80;99.90;;;;;;5075854;28;20204;-83
2023/04/21 00:04:32;;;;;;;14.23;8.07;;;8.80;99.90;;;;;;5076017;28;20515;-81
2023/04/21 00:07:00;;;;;;;11.23;7.63;;;8.80;99.90;;;;;;5076005;28;20230;-82
2023/04/21 00:09:26;;;;;;;10.80;7.30;;;8.80;99.90;;;;;;5075557;28;20260;-82
2023/04/21 00:11:52;;;;;;;13.30;7.87;;;8.90;99.90;;;;;;5057514;28;20177;-82
2023/04/21 00:14:18;;;;;;;11.80;7.93;;;8.80;99.90;;;;;;5075456;28;20176;-82
2023/04/21 00:16:44;;;;;;;11.83;7.10;;;8.90;99.90;;;;;;5075745;28;20201;-82
2023/04/21 00:19:12;;;;;;;13.35;8.30;;;8.90;99.90;;;;;;5075442;28;20505;-82
2023/04/21 00:21:38;;;;;;;12.40;7.60;;;9.00;99.90;;;;;;5075486;28;20211;-82
2023/04/21 00:24:04;;;;;;;11.68;6.88;;;8.90;99.90;;;;;;5075595;28;20179;-82
2023/04/21 00:26:30;;;;;;;13.37;7.80;;;8.90;99.90;;;;;;5057572;28;20223;-81
2023/04/21 00:28:56;;;;;;;12.23;6.97;;;8.90;99.90;;;;;;5056934;28;20197;-82
2023/04/21 00:31:22;;;;;;;11.27;7.80;;;8.90;99.90;;;;;;5075471;28;20489;-83
2023/04/21 00:33:47;;;;;;;14.27;7.83;;;8.90;99.90;;;;;;5075490;28;20481;-82
2023/04/21 00:36:13;;;;;;;12.20;7.30;;;8.80;99.90;;;;;;5057676;28;20666;-82
2023/04/21 00:38:39;;;;;;;12.23;7.13;;;8.80;99.90;;;;;;5075359;28;20196;-82
2023/04/21 00:41:04;;;;;;;10.40;7.30;;;8.80;99.90;;;;;;5075211;28;20162;-82
2023/04/21 00:43:30;;;;;;;14.67;7.27;;;8.80;99.90;;;;;;5057072;28;20534;-82
2023/04/21 00:45:56;;;;;;;13.90;8.07;;;8.70;99.90;;;;;;5057052;28;20285;-82
2023/04/21 00:48:22;;;;;;;13.47;7.37;;;8.70;99.90;;;;;;5075203;28;20177;-82
2023/04/21 00:50:47;;;;;;;17.13;7.77;;;8.70;99.90;;;;;;5074991;28;20646;-83
2023/04/21 00:53:14;;;;;;;15.13;8.00;;;8.60;99.90;;;;;;5074908;28;20226;-82
2023/04/21 00:55:40;;;;;;;11.53;7.60;;;8.60;99.90;;;;;;5074940;28;20170;-83
2023/04/21 00:58:06;;;;;;;11.17;7.90;;;8.60;99.90;;;;;;5041435;28;20392;-82
2023/04/21 01:00:32;;;;;;;13.37;7.97;;;8.60;99.90;;;;;;5034630;28;20258;-82
2023/04/21 01:03:00;;;;;;;14.90;7.83;;;8.60;99.90;;;;;;5034876;28;20345;-82
2023/04/21 01:05:26;;;;;;;15.23;7.27;;;8.60;99.90;;;;;;5033763;28;20189;-82
2023/04/21 01:07:52;;;;;;;12.03;7.77;;;8.60;99.90;;;;;;5034284;28;20175;-82
2023/04/21 01:10:18;;;;;;;13.90;7.67;;;8.60;99.90;;;;;;5033768;28;20730;-82
2023/04/21 01:12:44;;;;;;;13.13;7.13;;;8.60;99.90;;;;;;5034548;28;20163;-83
2023/04/21 01:15:15;;;;;;;14.60;7.75;;;8.60;99.90;;;;;;5033439;28;20221;-82
2023/04/21 01:17:41;;;;;;;13.30;7.43;;;8.50;99.90;;;;;;5034647;28;20162;-83
2023/04/21 01:20:12;;;;;;;16.50;7.70;;;8.50;99.90;;;;;;5034341;28;20577;-83
2023/04/21 01:22:40;;;;;;;18.73;7.50;;;8.50;99.90;;;;;;5034478;28;20297;-82
2023/04/21 01:25:07;;;;;;;11.60;7.60;;;8.50;99.90;;;;;;5033165;28;20175;-82
2023/04/21 01:27:33;;;;;;;9.13;6.77;;;8.50;99.90;;;;;;5034399;28;20309;-82
2023/04/21 01:29:59;;;;;;;17.27;7.53;;;8.50;99.90;;;;;;5032895;28;20182;-82
2023/04/21 01:32:28;;;;;;;12.70;7.50;;;8.50;99.90;;;;;;5033006;28;20171;-83
2023/04/21 01:34:55;;;;;;;11.07;7.53;;;8.60;99.90;;;;;;5034274;28;20163;-82
2023/04/21 01:37:24;;;;;;;12.70;6.93;;;8.50;99.90;;;;;;5033347;28;20189;-82
2023/04/21 01:39:54;;;;;;;12.87;7.43;;;8.50;99.90;;;;;;5032771;28;20203;-83
2023/04/21 01:42:21;;;;;;;10.50;6.97;;;8.60;99.90;;;;;;5034398;28;20212;-82
2023/04/21 01:44:48;;;;;;;10.10;7.40;;;8.50;99.90;;;;;;5034011;28;20542;-82
2023/04/21 01:47:15;;;;;;;10.47;7.00;;;8.50;99.90;;;;;;5034161;28;20201;-83
2023/04/21 01:49:40;;;;;;;12.13;7.13;;;8.50;99.90;;;;;;5034030;28;20178;-83
2023/04/21 01:52:07;;;;;;;11.30;7.13;;;8.50;99.90;;;;;;5034053;28;20611;-83
2023/04/21 01:54:33;;;;;;;10.77;6.87;;;8.50;99.90;;;;;;5032602;28;20186;-83
2023/04/21 01:56:59;;;;;;;12.73;7.43;;;8.60;99.90;;;;;;5039293;28;20215;-82
2023/04/21 01:59:25;;;;;;;15.43;7.07;;;8.50;99.90;;;;;;5073547;28;20207;-82
2023/04/21 02:01:50;;;;;;;13.40;7.20;;;8.50;99.90;;;;;;5055395;28;20212;-82
2023/04/21 02:04:16;;;;;;;10.17;6.60;;;8.50;99.90;;;;;;5055769;28;20258;-82
2023/04/21 02:06:42;;;;;;;12.17;6.90;;;8.40;99.90;;;;;;5073707;28;20180;-83
2023/04/21 02:09:07;;;;;;;16.10;7.30;;;8.40;99.90;;;;;;5055602;28;20245;-82
2023/04/21 02:11:33;;;;;;;12.03;7.23;;;8.40;99.90;;;;;;5073502;28;20192;-82
2023/04/21 02:13:59;;;;;;;19.97;7.37;;;8.30;99.90;;;;;;5073353;28;20188;-82
2023/04/21 02:16:25;;;;;;;9.60;6.87;;;8.30;99.90;;;;;;5055645;28;20294;-82
2023/04/21 02:19:02;;;;;;;12.80;6.67;;;8.30;99.90;;;;;;5072811;28;20287;-82
2023/04/21 02:21:27;;;;;;;10.67;6.60;;;8.30;99.90;;;;;;5073538;28;20169;-83
2023/04/21 02:23:53;;;;;;;11.57;6.70;;;8.30;99.90;;;;;;5073667;28;20510;-82
2023/04/21 02:26:20;;;;;;;9.63;6.77;;;8.30;99.90;;;;;;5073450;28;20172;-83
2023/04/21 02:28:46;;;;;;;9.70;6.97;;;8.20;99.90;;;;;;5055432;28;20185;-82
2023/04/21 02:31:12;;;;;;;11.70;6.83;;;8.20;99.90;;;;;;5072997;28;20169;-82
2023/04/21 02:33:38;;;;;;;14.80;6.33;;;8.20;99.90;;;;;;5073321;28;20165;-83
2023/04/21 02:36:04;;;;;;;11.47;6.73;;;8.30;99.90;;;;;;5073477;28;20235;-82
2023/04/21 02:38:30;;;;;;;14.03;6.83;;;8.30;99.90;;;;;;5073329;28;20177;-82
2023/04/21 02:40:56;;;;;;;12.43;6.90;;;8.30;99.90;;;;;;5055251;28;20618;-83
2023/04/21 02:43:22;;;;;;;14.23;7.23;;;8.30;99.90;;;;;;5055315;28;20204;-82
2023/04/21 02:45:48;;;;;;;11.77;7.47;;;8.30;99.90;;;;;;5072919;28;20192;-82
2023/04/21 02:48:14;;;;;;;11.63;6.80;;;8.30;99.90;;;;;;5055141;28;20188;-82
2023/04/21 02:50:41;;;;;;;11.17;6.57;;;8.30;99.90;;;;;;5073070;28;20173;-82
2023/04/21 02:53:07;;;;;;;10.13;6.60;;;8.30;99.90;;;;;;5073275;28;20162;-82
2023/04/21 02:55:32;;;;;;;8.57;6.23;;;8.30;99.90;;;;;;5073311;28;20507;-82
2023/04/21 02:57:58;;;;;;;14.10;6.80;;;8.30;99.90;;;;;;5072995;28;20286;-82
2023/04/21 03:00:24;;;;;;;11.30;6.47;;;8.20;99.90;;;;;;5072648;28;20166;-83
2023/04/21 03:02:52;;;;;;;15.37;6.90;;;8.30;99.90;;;;;;5054996;28;20208;-82
2023/04/21 03:05:17;;;;;;;13.60;8.23;;;8.20;99.90;;;;;;5055063;28;20181;-82
2023/04/21 03:07:44;;;;;;;15.63;7.17;;;8.20;99.90;;;;;;5055145;28;20226;-82
2023/04/21 03:10:10;;;;;;;16.70;6.83;;;8.20;99.90;;;;;;5055098;28;20547;-82
2023/04/21 03:12:36;;;;;;;10.57;6.80;;;8.20;99.90;;;;;;5072949;28;20169;-83
2023/04/21 03:15:02;;;;;;;11.27;6.80;;;8.20;99.90;;;;;;5072828;28;20169;-82
2023/04/21 03:17:28;;;;;;;13.93;7.20;;;8.20;99.90;;;;;;5073262;28;20510;-83
2023/04/21 03:19:53;;;;;;;17.03;7.30;;;8.20;99.90;;;;;;5054867;28;20180;-82
2023/04/21 03:22:19;;;;;;;16.53;6.53;;;8.10;99.90;;;;;;5072772;28;20197;-82
2023/04/21 03:24:45;;;;;;;15.70;6.70;;;8.10;99.90;;;;;;5072968;28;20608;-82
2023/04/21 03:27:11;;;;;;;12.13;7.40;;;8.10;99.90;;;;;;5072823;28;20252;-82
2023/04/21 03:29:36;;;;;;;16.00;7.47;;;8.00;99.90;;;;;;5054644;28;20643;-83
2023/04/21 03:32:02;;;;;;;11.47;7.17;;;8.10;99.90;;;;;;5058312;28;20173;-82
2023/04/21 03:34:28;;;;;;;12.73;6.67;;;8.10;99.90;;;;;;5058600;28;20185;-82
2023/04/21 03:36:54;;;;;;;13.43;7.57;;;8.10;99.90;;;;;;5058397;28;20177;-83
2023/04/21 03:39:20;;;;;;;12.90;6.87;;;8.10;99.90;;;;;;5058426;28;20177;-82
2023/04/21 03:41:46;;;;;;;13.23;6.47;;;8.10;99.90;;;;;;5076272;28;20195;-82
2023/04/21 03:44:12;;;;;;;11.83;6.40;;;8.10;99.90;;;;;;5058106;28;20187;-82
2023/04/21 03:46:38;;;;;;;10.77;6.60;;;8.10;99.90;;;;;;5076454;28;20173;-83
2023/04/21 03:49:04;;;;;;;12.73;6.80;;;8.10;99.90;;;;;;5076144;28;20504;-82
2023/04/21 03:51:31;;;;;;;14.57;6.73;;;8.00;99.90;;;;;;5076102;28;20180;-83
2023/04/21 03:53:57;;;;;;;14.03;7.27;;;8.00;99.90;;;;;;5076359;28;20162;-82
2023/04/21 03:56:23;;;;;;;10.50;6.63;;;8.00;99.90;;;;;;5076077;28;20544;-82
2023/04/21 03:58:49;;;;;;;16.00;7.23;;;8.00;99.90;;;;;;5075911;28;20290;-82
2023/04/21 04:01:14;;;;;;;16.23;8.33;;;8.00;99.90;;;;;;5057592;28;20511;-82
2023/04/21 04:03:40;;;;;;;10.67;6.63;;;8.00;99.90;;;;;;5057816;28;20258;-82
2023/04/21 04:06:06;;;;;;;11.77;6.93;;;8.00;99.90;;;;;;5075973;28;20165;-82
2023/04/21 04:08:32;;;;;;;11.20;6.53;;;7.90;99.90;;;;;;5076036;28;20173;-82
2023/04/21 04:10:57;;;;;;;15.00;6.30;;;7.90;99.90;;;;;;5057386;28;20526;-82
2023/04/21 04:13:25;;;;;;;14.93;6.73;;;7.90;99.90;;;;;;5057668;28;20169;-82
2023/04/21 04:15:51;;;;;;;11.80;6.90;;;7.90;99.90;;;;;;5075433;28;20174;-82
2023/04/21 04:18:17;;;;;;;14.90;6.80;;;7.90;99.90;;;;;;5075676;28;20170;-82
2023/04/21 04:20:42;;;;;;;11.77;6.77;;;7.80;99.90;;;;;;5075668;28;20185;-82
2023/04/21 04:23:08;;;;;;;14.10;7.03;;;7.80;99.90;;;;;;5057544;28;20213;-82
2023/04/21 04:25:36;;;;;;;11.63;7.00;;;7.70;99.90;;;;;;5057505;28;20208;-82
2023/04/21 04:28:01;;;;;;;16.80;6.80;;;7.70;99.90;;;;;;5075544;28;20186;-82
2023/04/21 04:30:28;;;;;;;13.63;7.10;;;7.70;99.90;;;;;;5074989;28;20185;-82
2023/04/21 04:32:54;;;;;;;13.07;6.83;;;7.70;99.90;;;;;;5057631;28;20188;-82
2023/04/21 04:35:20;;;;;;;15.17;7.70;;;7.70;99.90;;;;;;5057720;28;20238;-83
2023/04/21 04:37:45;;;;;;;14.53;6.67;;;7.80;99.90;;;;;;5075450;28;20177;-82
2023/04/21 04:40:11;;;;;;;15.10;7.10;;;7.70;99.90;;;;;;5057395;28;20173;-82
2023/04/21 04:42:38;;;;;;;9.70;6.90;;;7.70;99.90;;;;;;5074318;28;20208;-82
2023/04/21 04:45:07;;;;;;;12.70;7.37;;;7.80;99.90;;;;;;5056927;28;20522;-82
2023/04/21 04:47:33;;;;;;;16.07;7.50;;;7.80;99.90;;;;;;5075289;28;20177;-82
2023/04/21 04:49:59;;;;;;;12.03;6.87;;;7.80;99.90;;;;;;5075109;28;20197;-82
2023/04/21 04:52:25;;;;;;;12.37;7.13;;;7.80;99.90;;;;;;5075044;28;20646;-82
2023/04/21 04:54:50;;;;;;;14.20;7.57;;;7.80;99.90;;;;;;5074952;28;20172;-82
2023/04/21 04:57:16;;;;;;;16.37;7.87;;;7.90;99.90;;;;;;5074760;28;20532;-82
2023/04/21 04:59:42;;;;;;;13.57;7.70;;;7.90;99.90;;;;;;5073978;28;20173;-82
2023/04/21 05:02:09;;;;;;;15.80;7.67;;;7.90;99.90;;;;;;5074473;28;20197;-82
2023/04/21 05:04:35;;;;;;;15.07;7.60;;;8.00;99.90;;;;;;5074681;28;20185;-82
2023/04/21 05:07:01;;;;;;;10.23;6.90;;;8.10;99.90;;;;;;5074793;28;20216;-83
2023/04/21 05:09:26;;;;;;;17.07;7.87;;;8.10;99.90;;;;;;5074198;28;20173;-82
2023/04/21 05:11:52;;;;;;;12.77;7.07;;;8.20;99.90;;;;;;5074571;28;20173;-82
2023/04/21 05:14:17;;;;;;;11.70;7.47;;;8.30;99.90;;;;;;5074427;28;20181;-82
2023/04/21 05:16:43;;;;;;;14.20;7.90;;;8.30;99.90;;;;;;5074136;28;20235;-83
2023/04/21 05:19:09;;;;;;;14.23;7.83;;;8.40;99.90;;;;;;5073962;28;20196;-82
2023/04/21 05:21:35;;;;;;;16.47;7.50;;;8.50;99.90;;;;;;5056254;28;20560;-83
2023/04/21 05:24:01;;;;;;;14.50;8.10;;;8.60;99.90;;;;;;5056279;28;20184;-83
2023/04/21 05:26:28;;;;;;;17.27;8.40;;;8.60;99.90;;;;;;5056283;28;20447;-83
2023/04/21 05:28:55;;;;;;;14.30;8.30;;;8.70;99.90;;;;;;5056094;28;20216;-83
2023/04/21 05:31:21;;;;;;;11.70;7.90;;;8.80;99.90;;;;;;5073685;28;20170;-82
2023/04/21 05:33:47;;;;;;;14.23;7.93;;;8.90;99.90;;;;;;5056258;28;20205;-82
2023/04/21 05:36:13;;;;;;;13.75;8.18;;;8.90;99.90;;;;;;5056042;28;20219;-82
2023/04/21 05:38:38;;;;;;;22.45;8.35;;;9.00;99.90;;;;;;5056243;28;20197;-82
2023/04/21 05:41:04;;;;;;;17.73;8.30;;;9.10;99.90;;;;;;5055633;28;20177;-83
2023/04/21 05:43:33;;;;;;;17.27;8.97;;;9.20;99.90;;;;;;5073828;28;20307;-83
2023/04/21 05:46:01;;;;;;;16.67;8.83;;;9.20;99.90;;;;;;5055564;28;20178;-83
2023/04/21 05:48:30;;;;;;;17.50;8.77;;;9.30;99.90;;;;;;5073779;28;20181;-83
2023/04/21 05:50:55;;;;;;;14.95;8.30;;;9.40;99.90;;;;;;5073520;28;20315;-83
2023/04/21 05:53:22;;;;;;;14.32;8.38;;;9.50;99.90;;;;;;5073397;28;20252;-83
2023/04/21 05:55:48;;;;;;;17.02;8.05;;;9.50;99.90;;;;;;5055746;28;20188;-84
2023/04/21 05:58:14;;;;;;;13.13;7.40;;;9.50;99.90;;;;;;5073304;28;20239;-83
2023/04/21 06:00:40;;;;;;;10.45;6.50;;;9.60;99.90;;;;;;5073352;28;20522;-83
2023/04/21 06:03:06;;;;;;;12.65;7.53;;;9.70;99.90;;;;;;5073370;28;20252;-83
2023/04/21 06:05:32;;;;;;;10.27;7.10;;;9.80;99.90;;;;;;5073714;28;20553;-83
2023/04/21 06:07:58;;;;;;;16.05;7.13;;;9.90;99.90;;;;;;5073388;28;20557;-83
2023/04/21 06:10:23;;;;;;;11.73;6.95;;;9.90;99.90;;;;;;5073530;28;20188;-83
2023/04/21 06:12:49;;;;;;;12.00;7.00;;;10.00;99.90;;;;;;5073030;28;20204;-84
2023/04/21 06:15:15;;;;;;;12.93;8.05;;;10.00;99.90;;;;;;5073084;28;20596;-83
2023/04/21 06:17:40;;;;;;;15.73;7.47;;;10.10;99.90;;;;;;5055371;28;20185;-83
2023/04/21 06:20:07;;;;;;;12.25;7.25;;;10.20;99.90;;;;;;5055108;28;20185;-83
2023/04/21 06:22:33;;;;;;;13.57;7.43;;;10.20;99.90;;;;;;5072290;28;20243;-83
2023/04/21 06:24:59;;;;;;;13.47;7.50;;;10.40;99.90;;;;;;5055495;28;20553;-83
2023/04/21 06:27:25;;;;;;;15.88;7.03;;;10.40;99.90;;;;;;5055221;28;20208;-83
2023/04/21 06:29:54;;;;;;;11.90;7.60;;;10.50;99.90;;;;;;5073100;28;20169;-82
2023/04/21 06:32:20;;;;;;;17.95;7.30;;;10.60;99.90;;;;;;5073407;28;20173;-83
2023/04/21 06:34:46;;;;;;;16.88;8.15;;;10.70;99.90;;;;;;5055262;28;20272;-84
2023/04/21 06:37:12;;;;;;;11.13;7.55;;;10.80;99.90;;;;;;5073294;28;20169;-82
2023/04/21 06:39:37;;;;;;;13.45;7.72;;;11.00;99.90;;;;;;5073332;28;20181;-83
2023/04/21 06:42:03;;;;;;;13.88;7.45;;;11.10;99.90;;;;;;5055345;28;20207;-83
2023/04/21 06:44:31;;;;;;;14.13;7.15;;;11.10;99.90;;;;;;5055152;28;20520;-83
2023/04/21 06:46:56;;;;;;;15.23;7.22;;;11.30;99.90;;;;;;5073035;28;20192;-83
2023/04/21 06:49:22;;;;;;;12.18;7.20;;;11.30;99.90;;;;;;5073175;28;20604;-83
2023/04/21 06:51:48;;;;;;;14.45;7.40;;;11.40;99.90;;;;;;5054974;28;20273;-84
2023/04/21 06:54:13;;;;;;;13.68;6.82;;;11.40;99.90;;;;;;5072768;28;20188;-83
2023/04/21 06:56:41;;;;;;;16.75;7.30;;;11.50;99.90;;;;;;5055067;28;20185;-84
2023/04/21 06:59:08;;;;;;;13.27;6.22;;;11.60;99.90;;;;;;5072800;28;20315;-83
2023/04/21 07:01:34;;;;;;;14.38;7.38;;;11.70;99.90;;;;;;5054566;28;20277;-84
2023/04/21 07:04:00;;;;;;;14.05;7.50;;;11.70;99.90;;;;;;5055351;28;20492;-83
2023/04/21 07:06:26;;;;;;;16.77;7.70;;;11.90;99.90;;;;;;5058206;28;20242;-83
2023/04/21 07:08:52;;;;;;;15.88;8.32;;;12.00;99.90;;;;;;5058946;28;20526;-86
2023/04/21 07:11:18;;;;;;;10.10;7.07;;;12.00;99.90;;;;;;5076631;28;20173;-84
2023/04/21 07:13:44;;;;;;;16.58;7.43;;;12.10;99.90;;;;;;5058897;28;20203;-83
2023/04/21 07:16:10;;;;;;;9.48;6.70;;;12.20;99.90;;;;;;5058254;28;20608;-83
2023/04/21 07:18:35;;;;;;;12.50;7.10;;;12.30;99.90;;;;;;5076682;28;20173;-83
2023/04/21 07:21:01;;;;;;;10.75;6.82;;;12.30;99.90;;;;;;5076718;28;20181;-86
2023/04/21 07:23:27;;;;;;;12.13;7.20;;;12.50;99.90;;;;;;5076380;28;20209;-83
2023/04/21 07:25:53;;;;;;;13.73;7.05;;;12.50;99.90;;;;;;5076450;28;20514;-84
2023/04/21 07:28:18;;;;;;;13.57;6.45;;;12.70;99.90;;;;;;5076632;28;20185;-84
2023/04/21 07:30:44;;;;;;;11.02;6.63;;;12.80;99.90;;;;;;5058095;28;20230;-83
2023/04/21 07:33:10;;;;;;;12.00;6.90;;;12.90;99.90;;;;;;5076523;28;20589;-87
2023/04/21 07:35:35;;;;;;;13.68;6.57;;;13.00;99.90;;;;;;5058511;28;20514;-85
2023/04/21 07:38:01;;;;;;;13.27;6.72;;;13.00;99.90;;;;;;5058398;28;20180;-84
2023/04/21 07:40:27;;;;;;;12.25;7.25;;;13.10;99.90;;;;;;5076164;28;20176;-85
2023/04/21 07:42:52;;;;;;;11.23;7.50;;;13.30;99.90;;;;;;5076134;28;20209;-84
2023/04/21 07:45:18;;;;;;;11.25;6.38;;;13.40;99.90;;;;;;5076158;28;20532;-84
2023/04/21 07:47:45;;;;;;;21.00;7.40;;;13.50;99.90;;;;;;5058452;28;20495;-84
2023/04/21 07:50:10;;;;;;;11.05;6.88;;;13.60;99.90;;;;;;5076053;28;20227;-83
2023/04/21 07:52:36;;;;;;;12.45;7.03;;;13.70;99.90;;;;;;5075931;28;20177;-84
2023/04/21 07:55:02;;;;;;;13.15;6.75;;;13.80;99.90;;;;;;5076019;28;20197;-84
2023/04/21 07:57:30;;;;;;;14.82;6.47;;;13.90;99.90;;;;;;5057996;28;20237;-84
2023/04/21 07:59:56;;;;;;;13.68;7.00;;;13.90;99.90;;;;;;5058018;28;20177;-82
2023/04/21 08:02:22;;;;;;;12.35;6.82;;;14.00;99.90;;;;;;5075360;28;20205;-86
2023/04/21 08:04:48;;;;;;;16.25;6.90;;;14.10;99.90;;;;;;5058134;28;20695;-83
2023/04/21 08:07:14;;;;;;;14.77;6.50;;;14.10;99.90;;;;;;5075583;28;20260;-84
2023/04/21 08:09:40;;;;;;;13.10;6.78;;;14.30;99.90;;;;;;5057775;28;20178;-84
2023/04/21 08:12:05;;;;;;;12.32;7.15;;;14.40;99.90;;;;;;5075895;28;20181;-84
2023/04/21 08:14:31;;;;;;;12.18;6.72;;;14.50;99.90;;;;;;5075987;28;20619;-83
2023/04/21 08:16:58;;;;;;;10.02;6.13;;;14.60;99.90;;;;;;5074107;28;20191;-84
2023/04/21 08:19:24;;;;;;;15.60;6.50;;;14.80;99.90;;;;;;5075125;28;20227;-83
2023/04/21 08:21:50;;;;;;;11.68;6.32;;;14.80;99.90;;;;;;5075316;28;20208;-85
2023/04/21 08:24:15;;;;;;;14.65;6.65;;;14.90;99.90;;;;;;5057645;28;20511;-83
2023/04/21 08:26:41;;;;;;;10.75;6.53;;;14.90;99.90;;;;;;5057888;28;20246;-84
2023/04/21 08:29:09;;;;;;;9.75;6.53;;;15.00;99.90;;;;;;5075539;28;20338;-84
2023/04/21 08:31:35;;;;;;;9.05;5.72;;;15.10;99.90;;;;;;5057197;28;20518;-83
2023/04/21 08:34:01;;;;;;;13.63;6.38;;;15.10;99.90;;;;;;5075926;28;20181;-83
2023/04/21 08:36:27;;;;;;;13.63;6.38;;;15.20;99.90;;;;;;5057506;28;20191;-85
2023/04/21 08:38:53;;;;;;;18.45;6.70;;;15.40;99.90;;;;;;5057545;28;20181;-82
2023/04/21 08:41:20;;;;;;;17.15;6.45;;;15.40;99.90;;;;;;5057125;28;20318;-83
2023/04/21 08:43:46;;;;;;;11.13;6.15;;;15.50;99.90;;;;;;5075110;28;20222;-86
2023/04/21 08:46:13;;;;;;;10.88;6.15;;;15.60;99.90;;;;;;5056615;28;20169;-86
2023/04/21 08:48:39;;;;;;;10.48;5.72;;;15.50;99.90;;;;;;5056996;28;20238;-83
2023/04/21 08:51:10;;;;;;;12.15;7.13;;;15.70;99.90;;;;;;5056901;28;20181;-84
2023/04/21 08:53:36;;;;;;;13.77;6.10;;;15.70;99.90;;;;;;5056995;28;20208;-85
2023/04/21 08:56:03;;;;;;;9.38;5.55;;;15.90;99.90;;;;;;5056851;28;20458;-83
2023/04/21 08:58:29;;;;;;;11.18;6.30;;;16.10;99.90;;;;;;5074614;28;20235;-83
2023/04/21 09:00:54;;;;;;;8.18;5.60;;;16.20;99.90;;;;;;5074426;28;20165;-83
2023/04/21 09:03:22;;;;;;;12.20;5.90;;;16.30;99.90;;;;;;5056753;28;20217;-84
2023/04/21 09:05:57;;;;;;;12.85;5.85;;;16.40;99.90;;;;;;5056798;28;20178;-83
2023/04/21 09:08:24;;;;;;;13.88;5.20;;;16.40;99.90;;;;;;5074909;28;20305;-83
2023/04/21 09:10:51;;;;;;;13.27;6.10;;;16.50;99.90;;;;;;5074433;28;20176;-84
2023/04/21 09:13:18;;;;;;;12.65;5.30;;;16.60;99.90;;;;;;5056628;28;20169;-84
2023/04/21 09:15:47;;;;;;;10.32;5.20;;;16.60;99.90;;;;;;5074706;28;20158;-85
2023/04/21 09:18:15;;;;;;;13.00;5.80;;;16.80;99.90;;;;;;5056638;28;20173;-87
2023/04/21 09:20:42;;;;;;;8.93;5.60;;;16.90;99.90;;;;;;5056575;28;20211;-83
2023/04/21 09:23:09;;;;;;;12.75;6.10;;;16.90;99.90;;;;;;5074418;28;20244;-84
2023/04/21 09:25:38;;;;;;;11.43;5.53;;;17.10;99.90;;;;;;5056635;28;20177;-84
2023/04/21 09:28:11;;;;;;;8.55;5.28;;;17.10;99.90;;;;;;5073813;28;20196;-85
2023/04/21 09:30:39;;;;;;;11.18;5.95;;;17.20;99.30;;;;;;5073766;28;20165;-83
2023/04/21 09:33:04;;;;;;;9.10;5.28;;;17.40;99.60;;;;;;5056404;28;20184;-83
2023/04/21 09:35:35;;;;;;;13.95;5.93;;;17.50;98.30;;;;;;5074323;28;20157;-84
2023/04/21 09:38:02;;;;;;;8.77;5.28;;;17.50;97.50;;;;;;5074229;28;20192;-84
2023/04/21 09:40:29;;;;;;;14.70;5.80;;;17.50;98.40;;;;;;5055983;28;20185;-84
2023/04/21 09:42:56;;;;;;;9.55;5.05;;;17.60;96.90;;;;;;5073930;28;20258;-84
2023/04/21 09:45:27;;;;;;;12.27;5.55;;;17.60;98.40;;;;;;5073903;28;20162;-83
2023/04/21 09:48:01;;;;;;;10.40;5.32;;;17.80;97.50;;;;;;5074351;28;20211;-85
2023/04/21 09:50:28;;;;;;;9.23;5.38;;;17.80;95.80;;;;;;5056075;28;20607;-83
2023/04/21 09:52:55;;;;;;;19.23;5.38;;;17.80;97.50;;;;;;5073835;28;20183;-85
2023/04/21 09:55:27;;;;;;;11.88;5.63;;;17.90;95.90;;;;;;5073884;28;20177;-82
2023/04/21 09:58:01;;;;;;;12.18;5.50;;;18.00;96.50;;;;;;5073681;28;20231;-83
2023/04/21 10:00:28;;;;;;;12.18;5.47;;;18.00;95.10;;;;;;5073155;28;20196;-84
2023/04/21 10:02:56;;;;;;;9.45;5.20;;;18.00;95.40;;;;;;5073640;28;20258;-84
2023/04/21 10:05:22;;;;;;;7.75;4.88;;;18.10;94.40;;;;;;5055668;28;20504;-84
2023/04/21 10:07:49;;;;;;;7.60;4.80;;;18.20;94.10;;;;;;5055841;28;20185;-83
2023/04/21 10:10:30;;;;;;;11.38;4.90;;;18.20;94.20;;;;;;5073717;28;20180;-83
2023/04/21 10:12:57;;;;;;;10.13;4.85;;;18.30;93.60;;;;;;5073851;28;20251;-83
2023/04/21 10:15:37;;;;;;;8.13;4.75;;;18.40;93.60;;;;;;5073655;28;20169;-84
2023/04/21 10:18:21;;;;;;;7.80;4.63;;;18.50;92.10;;;;;;5055840;28;20185;-83
2023/04/21 10:21:01;;;;;;;10.05;4.60;;;18.60;92.30;;;;;;5055247;28;20640;-83
2023/04/21 10:23:27;;;;;;;8.20;4.70;;;18.70;92.00;;;;;;5073673;28;20288;-82
2023/04/21 10:25:53;;;;;;;11.45;4.85;;;18.80;92.50;;;;;;5073509;28;20189;-83
2023/04/21 10:28:19;;;;;;;8.88;4.60;;;19.00;93.30;;;;;;5055341;28;20195;-83
2023/04/21 10:30:45;;;;;;;8.18;4.65;;;19.10;91.90;;;;;;5055023;28;20181;-82
2023/04/21 10:33:11;;;;;;;8.40;4.85;;;19.20;91.70;;;;;;5073371;28;20177;-85
2023/04/21 10:36:14;;;;;;;6.28;4.20;;;19.30;89.50;;;;;;5073570;28;20562;-87
2023/04/21 10:38:42;;;;;;;6.40;4.00;;;19.40;83.90;;;;;;4956284;28;20239;-83
2023/04/21 10:41:28;;;;;;;11.25;4.45;;;19.30;83.30;;;;;;5054446;28;20579;-83
2023/04/21 10:44:12;;;;;;;8.40;4.18;;;19.50;83.90;;;;;;5073403;28;20247;-84
2023/04/21 10:46:39;;;;;;;5.28;3.78;;;19.50;80.40;;;;;;5072951;28;20161;-84
2023/04/21 10:49:10;;;;;;;7.80;4.07;;;19.50;82.00;;;;;;5073302;28;20169;-83
2023/04/21 10:52:06;;;;;;;8.02;4.28;;;19.60;80.40;;;;;;5073186;28;20553;-83
2023/04/21 10:54:40;;;;;;;5.38;3.80;;;19.60;82.30;;;;;;5055487;28;20220;-84
2023/04/21 10:57:08;;;;;;;9.10;3.60;;;19.70;82.00;;;;;;5055100;28;20213;-86
2023/04/21 10:59:34;;;;;;;9.35;3.85;;;19.80;79.10;;;;;;5073101;28;20187;-84
2023/04/21 11:02:02;;;;;;;6.70;3.72;;;19.70;78.80;;;;;;5072714;28;20246;-82
2023/04/21 11:04:29;;;;;;;5.75;3.78;;;19.80;78.50;;;;;;5073168;28;20659;-82
2023/04/21 11:07:22;;;;;;;6.93;4.22;;;19.80;78.10;;;;;;5055621;28;20181;-83
2023/04/21 11:09:56;;;;;;;6.45;3.88;;;19.90;76.80;;;;;;5069054;28;20197;-82
2023/04/21 11:12:29;;;;;;;6.95;4.05;;;19.70;76.70;;;;;;5073122;28;20176;-85
2023/04/21 11:14:56;;;;;;;7.10;4.15;;;19.70;76.60;;;;;;5066235;28;20182;-84
2023/04/21 11:17:23;;;;;;;6.93;4.88;;;19.80;78.90;;;;;;5061752;28;20227;-84
2023/04/21 11:19:53;;;;;;;7.25;4.07;;;19.90;77.40;;;;;;5065951;28;20272;-84
2023/04/21 11:22:21;;;;;;;8.95;4.32;;;20.00;78.20;;;;;;5054900;28;20229;-85
2023/04/21 11:24:49;;;;;;;12.00;3.70;;;20.10;77.50;;;;;;5055048;28;20216;-84
2023/04/21 11:27:16;;;;;;;7.68;3.72;;;20.20;75.20;;;;;;5072960;28;20165;-84
2023/04/21 11:29:45;;;;;;;7.03;3.83;;;20.20;73.50;;;;;;5072985;28;20165;-85
2023/04/21 11:32:12;;;;;;;6.35;4.03;;;20.20;71.70;;;;;;5072520;28;20248;-87
2023/04/21 11:34:38;;;;;;;8.70;3.95;;;20.10;72.30;;;;;;5054917;28;20623;-83
2023/04/21 11:37:06;;;;;;;7.05;3.63;;;20.10;74.00;;;;;;5072971;28;20161;-82
2023/04/21 11:39:32;;;;;;;8.82;4.38;;;20.00;73.70;;;;;;5072666;28;20173;-84
2023/04/21 11:41:58;;;;;;;8.88;3.75;;;20.00;71.50;;;;;;5054687;28;20662;-83
2023/04/21 11:44:32;;;;;;;12.23;3.75;;;20.00;74.60;;;;;;5072976;28;20612;-83
2023/04/21 11:46:58;;;;;;;6.60;3.90;;;20.20;74.80;;;;;;5054706;28;20672;-84
2023/04/21 11:49:26;;;;;;;8.13;3.60;;;20.10;72.40;;;;;;5072776;28;20205;-83
2023/04/21 11:51:52;;;;;;;6.22;4.13;;;20.20;74.10;;;;;;5074649;28;20256;-84
2023/04/21 11:54:20;;;;;;;7.80;3.72;;;20.40;72.00;;;;;;5058318;28;20272;-85
2023/04/21 11:56:47;;;;;;;6.72;3.92;;;20.30;72.60;;;;;;5076081;28;20279;-84
2023/04/21 11:59:15;;;;;;;6.78;4.05;;;20.30;70.70;;;;;;5076256;28;20228;-83
2023/04/21 12:01:45;;;;;;;9.25;4.30;;;20.20;70.30;;;;;;5075810;28;20499;-86
2023/04/21 12:04:16;;;;;;;9.13;4.40;;;20.10;72.20;;;;;;5058226;28;20182;-84
2023/04/21 12:06:42;;;;;;;7.03;4.47;;;20.10;73.70;;;;;;5076166;28;20169;-85
2023/04/21 12:09:08;;;;;;;4.93;3.92;;;20.20;74.60;;;;;;5076130;28;20173;-83
2023/04/21 12:11:34;;;;;;;11.30;4.63;;;20.30;73.40;;;;;;5075944;28;20234;-83
2023/04/21 12:14:00;;;;;;;11.23;5.10;;;20.50;72.40;;;;;;5058399;28;20183;-85
2023/04/21 12:16:27;;;;;;;11.40;4.88;;;20.40;72.30;;;;;;5075714;28;20169;-83
2023/04/21 12:18:54;;;;;;;10.45;4.28;;;20.30;72.90;;;;;;5057500;28;20534;-82
2023/04/21 12:21:20;;;;;;;9.40;4.50;;;20.30;72.70;;;;;;5057643;28;20173;-83
2023/04/21 12:23:46;;;;;;;6.57;4.13;;;20.00;72.50;;;;;;5075781;28;20224;-84
2023/04/21 12:26:12;;;;;;;7.40;4.63;;;19.90;74.50;;;;;;5075677;28;20161;-83
2023/04/21 12:28:38;;;;;;;8.43;4.15;;;20.00;73.50;;;;;;5075860;28;20189;-84
2023/04/21 12:31:05;;;;;;;7.28;4.65;;;19.90;73.70;;;;;;5057285;28;20181;-84
2023/04/21 12:33:30;;;;;;;6.90;4.32;;;20.00;74.00;;;;;;5075472;28;20261;-82
2023/04/21 12:35:56;;;;;;;12.43;5.13;;;20.10;73.90;;;;;;5075602;28;20213;-86
2023/04/21 12:38:22;;;;;;;6.40;4.20;;;20.30;74.50;;;;;;5075488;28;20181;-83
2023/04/21 12:40:48;;;;;;;7.03;4.50;;;20.20;74.50;;;;;;5075387;28;20627;-83
2023/04/21 12:43:13;;;;;;;7.90;4.30;;;19.90;73.10;;;;;;5075430;28;20209;-86